Time;durP1;ratioP1;P1;durP2;ratioP2;P2;SDS_P1;SDS_P2;PMS_P1;PMS_P2;Temp;Humidity;BMP_temperature;BMP_pressure;BME280_temperature;BME280_humidity;BME280_pressure;Samples;Min_cycle;Max_cycle;Signal;HPM_P1;HPM_P2
2022/07/09 00:01:28;;;;;;;2.58;1.35;;;;;;;16.14;nan;101667.63;5012280;28;20430;-74
2022/07/09 00:03:54;;;;;;;2.08;1.40;;;;;;;16.07;nan;101667.41;5012304;28;20041;-74
2022/07/09 00:06:20;;;;;;;2.28;1.42;;;;;;;16.03;nan;101670.56;5011354;28;20036;-73
2022/07/09 00:08:45;;;;;;;3.42;1.73;;;;;;;15.96;nan;101665.03;5011001;28;20039;-74
2022/07/09 00:11:10;;;;;;;2.80;1.60;;;;;;;15.89;nan;101662.16;5010102;28;20099;-74
2022/07/09 00:13:36;;;;;;;3.35;1.70;;;;;;;15.81;nan;101662.13;5011390;28;20026;-73
2022/07/09 00:16:01;;;;;;;3.40;1.70;;;;;;;15.79;nan;101665.94;5010500;28;20038;-74
2022/07/09 00:18:27;;;;;;;4.95;2.03;;;;;;;15.80;nan;101657.78;5010498;28;20043;-73
2022/07/09 00:20:54;;;;;;;2.67;1.50;;;;;;;15.82;nan;101670.94;4995097;28;20038;-74
2022/07/09 00:23:20;;;;;;;3.25;1.92;;;;;;;15.81;nan;101667.44;4993101;28;20035;-74
2022/07/09 00:25:45;;;;;;;4.10;1.90;;;;;;;15.82;nan;101662.94;5010900;28;20514;-74
2022/07/09 00:28:10;;;;;;;3.63;1.70;;;;;;;15.89;nan;101659.47;5008535;28;20100;-74
2022/07/09 00:30:36;;;;;;;3.22;1.60;;;;;;;15.95;nan;101655.38;4992659;28;20032;-74
2022/07/09 00:33:01;;;;;;;3.47;1.95;;;;;;;16.01;nan;101651.22;5007499;28;20422;-74
2022/07/09 00:35:26;;;;;;;2.90;1.83;;;;;;;16.07;nan;101646.06;5011064;28;20069;-74
2022/07/09 00:37:51;;;;;;;3.65;1.60;;;;;;;16.10;nan;101644.91;5011063;28;20050;-74
2022/07/09 00:40:17;;;;;;;2.33;1.40;;;;;;;16.10;nan;101648.41;5009524;28;20080;-74
2022/07/09 00:42:42;;;;;;;2.78;1.55;;;;;;;16.11;nan;101642.09;5010672;28;20049;-74
2022/07/09 00:45:08;;;;;;;4.15;1.73;;;;;;;16.10;nan;101636.91;5009124;28;20491;-74
2022/07/09 00:47:33;;;;;;;2.78;1.60;;;;;;;16.09;nan;101636.09;5009318;28;20279;-74
2022/07/09 00:49:59;;;;;;;3.90;1.85;;;;;;;16.06;nan;101636.38;5013003;28;20037;-74
2022/07/09 00:52:24;;;;;;;2.20;1.48;;;;;;;16.01;nan;101643.22;5012013;28;20034;-74
2022/07/09 00:54:50;;;;;;;2.42;1.55;;;;;;;15.91;nan;101636.16;5010067;28;20597;-74
2022/07/09 00:57:16;;;;;;;2.78;1.50;;;;;;;15.86;nan;101633.13;5010343;28;20064;-74
2022/07/09 00:59:41;;;;;;;2.15;1.30;;;;;;;15.82;nan;101631.78;5009641;28;20038;-74
2022/07/09 01:02:08;;;;;;;3.65;1.60;;;;;;;15.80;nan;101628.47;5006458;28;20072;-74
2022/07/09 01:04:34;;;;;;;2.47;1.80;;;;;;;15.84;nan;101628.97;5010042;28;20120;-74
2022/07/09 01:06:59;;;;;;;3.22;1.75;;;;;;;15.85;nan;101628.81;5010539;28;20495;-74
2022/07/09 01:09:26;;;;;;;4.68;2.00;;;;;;;15.89;nan;101630.13;5009870;28;20091;-74
2022/07/09 01:11:51;;;;;;;6.10;1.80;;;;;;;15.93;nan;101628.84;5009627;28;20112;-74
2022/07/09 01:14:17;;;;;;;3.88;2.03;;;;;;;15.97;nan;101628.50;4990608;28;20041;-73
2022/07/09 01:16:42;;;;;;;2.63;1.60;;;;;;;15.93;nan;101625.34;4986817;28;20037;-74
2022/07/09 01:19:08;;;;;;;5.25;2.15;;;;;;;15.93;nan;101628.00;5009403;28;20407;-74
2022/07/09 01:21:33;;;;;;;3.10;2.00;;;;;;;15.92;nan;101629.84;4992447;28;20072;-74
2022/07/09 01:23:59;;;;;;;3.17;1.70;;;;;;;15.89;nan;101623.97;5010109;28;20058;-74
2022/07/09 01:26:25;;;;;;;3.67;1.95;;;;;;;15.89;nan;101624.81;5007580;28;20104;-74
2022/07/09 01:28:50;;;;;;;4.20;1.90;;;;;;;15.92;nan;101626.31;4991692;28;20042;-74
2022/07/09 01:31:16;;;;;;;4.18;2.03;;;;;;;15.92;nan;101624.50;4990426;28;20049;-74
2022/07/09 01:33:42;;;;;;;4.85;1.83;;;;;;;15.92;nan;101626.31;5007430;28;20074;-74
2022/07/09 01:36:08;;;;;;;2.92;1.48;;;;;;;15.91;nan;101619.31;5007098;28;20037;-74
2022/07/09 01:38:33;;;;;;;2.60;1.55;;;;;;;15.88;nan;101611.66;5008472;28;20026;-74
2022/07/09 01:40:58;;;;;;;3.05;1.63;;;;;;;15.86;nan;101614.47;4991053;28;20418;-74
2022/07/09 01:43:24;;;;;;;3.72;1.90;;;;;;;15.81;nan;101606.13;5011867;28;20034;-74
2022/07/09 01:45:49;;;;;;;3.00;1.83;;;;;;;15.83;nan;101609.47;5012612;28;20049;-74
2022/07/09 01:48:15;;;;;;;3.38;1.90;;;;;;;15.81;nan;101610.63;5012903;28;20125;-73
2022/07/09 01:50:40;;;;;;;4.82;1.90;;;;;;;15.84;nan;101613.78;5015623;28;20029;-74
2022/07/09 01:53:06;;;;;;;2.65;1.70;;;;;;;15.81;nan;101603.44;5015271;28;20057;-74
2022/07/09 01:55:31;;;;;;;2.35;1.65;;;;;;;15.77;nan;101599.41;5013342;28;20046;-74
2022/07/09 01:57:56;;;;;;;4.40;1.70;;;;;;;15.74;nan;101601.59;5012457;28;20046;-74
2022/07/09 02:00:23;;;;;;;2.47;1.50;;;;;;;15.71;nan;101600.06;5012944;28;20292;-74
2022/07/09 02:02:48;;;;;;;2.72;1.30;;;;;;;15.68;nan;101592.34;5013384;28;20280;-73
2022/07/09 02:05:13;;;;;;;3.25;1.63;;;;;;;15.64;nan;101596.34;5014206;28;20040;-74
2022/07/09 02:07:39;;;;;;;2.22;1.30;;;;;;;15.57;nan;101598.78;4995387;28;20386;-74
2022/07/09 02:10:04;;;;;;;3.67;1.70;;;;;;;15.51;nan;101592.25;5011617;28;20033;-73
2022/07/09 02:12:30;;;;;;;3.88;1.90;;;;;;;15.56;nan;101598.94;5013071;28;20033;-74
2022/07/09 02:14:55;;;;;;;3.10;1.70;;;;;;;15.58;nan;101594.28;4996362;28;20022;-74
2022/07/09 02:17:21;;;;;;;2.63;1.60;;;;;;;15.54;nan;101596.47;5011338;28;20077;-73
2022/07/09 02:19:46;;;;;;;3.60;1.80;;;;;;;15.51;nan;101592.25;4991052;28;20042;-73
2022/07/09 02:22:11;;;;;;;5.07;2.00;;;;;;;15.47;nan;101590.91;5012296;28;20033;-73
2022/07/09 02:24:37;;;;;;;3.08;1.60;;;;;;;15.43;nan;101596.72;5029090;28;20033;-72
2022/07/09 02:27:02;;;;;;;2.90;1.60;;;;;;;15.38;nan;101591.84;5012123;28;20044;-72
2022/07/09 02:29:27;;;;;;;2.35;1.25;;;;;;;15.33;nan;101591.50;5008824;28;20097;-73
2022/07/09 02:31:55;;;;;;;2.20;1.40;;;;;;;15.26;nan;101595.78;4991869;28;20115;-73
2022/07/09 02:34:21;;;;;;;1.80;1.30;;;;;;;15.18;nan;101593.03;5009926;28;20582;-73
2022/07/09 02:36:46;;;;;;;2.33;1.30;;;;;;;15.11;nan;101594.66;5011645;28;20121;-73
2022/07/09 02:39:11;;;;;;;3.00;1.50;;;;;;;15.04;nan;101597.94;5015210;28;20102;-73
2022/07/09 02:41:36;;;;;;;5.07;1.98;;;;;;;15.06;nan;101593.31;5016303;28;20105;-73
2022/07/09 02:44:02;;;;;;;2.85;1.50;;;;;;;15.07;nan;101596.81;5010861;28;20030;-73
2022/07/09 02:46:27;;;;;;;2.10;1.33;;;;;;;15.04;nan;101592.63;5030677;28;20029;-73
2022/07/09 02:48:55;;;;;;;1.80;1.30;;;;;;;15.02;nan;101594.59;5000962;28;20068;-73
2022/07/09 02:51:21;;;;;;;3.78;1.20;;;;;;;14.99;nan;101589.59;5013854;28;20092;-73
2022/07/09 02:53:46;;;;;;;3.28;1.30;;;;;;;14.94;nan;101593.69;5020640;28;20073;-73
2022/07/09 02:56:11;;;;;;;1.50;1.10;;;;;;;14.87;nan;101596.13;5012682;28;20034;-73
2022/07/09 02:58:37;;;;;;;2.58;1.10;;;;;;;14.79;nan;101596.91;5012565;28;20053;-73
2022/07/09 03:01:05;;;;;;;1.58;1.20;;;;;;;14.74;nan;101601.84;4994640;28;20041;-72
2022/07/09 03:03:30;;;;;;;1.95;1.20;;;;;;;14.68;nan;101593.63;5012759;28;20034;-73
2022/07/09 03:05:55;;;;;;;2.10;1.40;;;;;;;14.62;nan;101587.94;5015404;28;20125;-73
2022/07/09 03:08:21;;;;;;;2.83;1.30;;;;;;;14.60;nan;101589.06;5014929;28;20108;-73
2022/07/09 03:10:48;;;;;;;1.60;1.35;;;;;;;14.55;nan;101589.53;5014257;28;20041;-73
2022/07/09 03:13:14;;;;;;;1.80;1.30;;;;;;;14.55;nan;101586.88;4995031;28;20374;-73
2022/07/09 03:15:39;;;;;;;1.50;1.02;;;;;;;14.53;nan;101588.81;5013462;28;20045;-73
2022/07/09 03:18:07;;;;;;;3.40;1.33;;;;;;;14.50;nan;101586.47;5012466;28;20060;-73
2022/07/09 03:20:33;;;;;;;2.05;1.30;;;;;;;14.48;nan;101591.09;5003352;28;20049;-72
2022/07/09 03:22:58;;;;;;;1.85;1.20;;;;;;;14.49;nan;101586.59;5027927;28;20646;-73
2022/07/09 03:25:23;;;;;;;2.85;1.60;;;;;;;14.53;nan;101590.63;5009505;28;20070;-73
2022/07/09 03:27:49;;;;;;;2.20;1.50;;;;;;;14.47;nan;101596.56;5008858;28;20042;-73
2022/07/09 03:30:14;;;;;;;3.20;1.42;;;;;;;14.42;nan;101589.06;5011669;28;20034;-73
2022/07/09 03:32:39;;;;;;;2.30;1.40;;;;;;;14.41;nan;101590.03;5014114;28;20061;-73
2022/07/09 03:35:05;;;;;;;1.88;1.30;;;;;;;14.41;nan;101590.84;4994843;28;20334;-73
2022/07/09 03:37:30;;;;;;;1.75;1.20;;;;;;;14.38;nan;101596.47;5011693;28;20096;-73
2022/07/09 03:39:55;;;;;;;1.85;1.10;;;;;;;14.37;nan;101593.97;4997245;28;20530;-73
2022/07/09 03:42:21;;;;;;;3.45;1.30;;;;;;;14.36;nan;101584.31;5010588;28;20039;-73
2022/07/09 03:44:46;;;;;;;1.90;1.20;;;;;;;14.37;nan;101585.97;5012393;28;20495;-73
2022/07/09 03:47:11;;;;;;;1.35;1.00;;;;;;;14.39;nan;101592.81;5011822;28;20050;-73
2022/07/09 03:49:36;;;;;;;1.92;1.40;;;;;;;14.37;nan;101593.97;5013646;28;20057;-72
2022/07/09 03:52:02;;;;;;;2.25;1.50;;;;;;;14.35;nan;101595.94;5010743;28;20034;-73
2022/07/09 03:54:28;;;;;;;3.47;1.50;;;;;;;14.31;nan;101602.56;5012166;28;20529;-73
2022/07/09 03:56:53;;;;;;;2.95;1.80;;;;;;;14.30;nan;101592.88;4996064;28;20038;-72
2022/07/09 03:59:18;;;;;;;2.65;1.90;;;;;;;14.32;nan;101593.59;4995021;28;20034;-73
2022/07/09 04:01:44;;;;;;;3.45;1.52;;;;;;;14.35;nan;101594.13;4995238;28;20038;-73
2022/07/09 04:04:09;;;;;;;2.65;1.60;;;;;;;14.37;nan;101593.97;4993618;28;20505;-73
2022/07/09 04:06:35;;;;;;;1.85;1.30;;;;;;;14.39;nan;101595.47;5013104;28;20068;-73
2022/07/09 04:09:04;;;;;;;3.28;1.48;;;;;;;14.44;nan;101589.72;5011633;28;20581;-72
2022/07/09 04:11:33;;;;;;;2.67;1.30;;;;;;;14.50;nan;101593.63;5012185;28;20044;-72
2022/07/09 04:13:59;;;;;;;2.38;1.55;;;;;;;14.52;nan;101592.47;5010558;28;20038;-73
2022/07/09 04:16:25;;;;;;;1.77;1.38;;;;;;;14.56;nan;101595.69;5010054;28;20088;-73
2022/07/09 04:18:50;;;;;;;2.33;1.40;;;;;;;14.53;nan;101604.78;5012065;28;20046;-73
2022/07/09 04:21:16;;;;;;;2.15;1.25;;;;;;;14.52;nan;101602.28;5011328;28;20048;-73
2022/07/09 04:23:42;;;;;;;2.33;1.33;;;;;;;14.50;nan;101604.25;4994645;28;20041;-73
2022/07/09 04:26:07;;;;;;;2.95;1.50;;;;;;;14.49;nan;101607.88;5010432;28;20041;-73
2022/07/09 04:28:36;;;;;;;1.88;1.30;;;;;;;14.49;nan;101608.75;5010128;28;20515;-73
2022/07/09 04:31:01;;;;;;;2.22;1.40;;;;;;;14.51;nan;101605.91;4993584;28;20607;-73
2022/07/09 04:33:26;;;;;;;1.88;1.40;;;;;;;14.55;nan;101604.66;5012102;28;20033;-73
2022/07/09 04:35:52;;;;;;;2.50;1.50;;;;;;;14.60;nan;101602.38;5012308;28;20058;-73
2022/07/09 04:38:17;;;;;;;1.85;1.10;;;;;;;14.67;nan;101599.97;5010507;28;20065;-73
2022/07/09 04:40:42;;;;;;;2.15;1.20;;;;;;;14.75;nan;101608.00;5012013;28;20030;-73
2022/07/09 04:43:07;;;;;;;2.10;1.13;;;;;;;14.82;nan;101601.91;4993912;28;20041;-73
2022/07/09 04:45:34;;;;;;;2.53;1.20;;;;;;;14.90;nan;101603.81;5012292;28;20057;-73
2022/07/09 04:48:00;;;;;;;1.90;1.30;;;;;;;14.97;nan;101610.22;4995088;28;20040;-73
2022/07/09 04:50:26;;;;;;;2.40;1.40;;;;;;;15.03;nan;101606.91;5012364;28;20045;-73
2022/07/09 04:52:51;;;;;;;2.13;1.30;;;;;;;15.13;nan;101608.66;4993353;28;20200;-73
2022/07/09 04:55:17;;;;;;;1.92;1.23;;;;;;;15.20;nan;101615.88;5010500;28;20042;-73
2022/07/09 04:57:43;;;;;;;1.75;1.10;;;;;;;15.27;nan;101613.41;5010045;28;20034;-73
2022/07/09 05:00:10;;;;;;;1.30;1.00;;;;;;;15.36;nan;101607.16;4994236;28;20030;-73
2022/07/09 05:02:36;;;;;;;1.80;1.02;;;;;;;15.45;nan;101603.56;5010792;28;20034;-73
2022/07/09 05:05:03;;;;;;;2.30;1.00;;;;;;;15.54;nan;101606.25;5011526;28;20045;-73
2022/07/09 05:07:29;;;;;;;2.50;1.52;;;;;;;15.66;nan;101607.66;5012339;28;20030;-73
2022/07/09 05:09:55;;;;;;;2.45;1.77;;;;;;;15.78;nan;101606.44;5011544;28;20617;-73
2022/07/09 05:12:20;;;;;;;4.13;2.28;;;;;;;15.92;nan;101599.63;5011571;28;20030;-73
2022/07/09 05:14:46;;;;;;;3.03;1.70;;;;;;;16.05;nan;101605.38;5012773;28;20054;-73
2022/07/09 05:17:12;;;;;;;3.25;2.13;;;;;;;16.19;nan;101595.09;5011795;28;20217;-73
2022/07/09 05:19:37;;;;;;;4.38;2.03;;;;;;;16.35;nan;101592.44;5001117;28;20449;-73
2022/07/09 05:22:03;;;;;;;4.57;2.30;;;;;;;16.52;nan;101594.16;5006109;28;20113;-73
2022/07/09 05:24:28;;;;;;;4.15;2.10;;;;;;;16.67;nan;101591.66;4998370;28;20042;-73
2022/07/09 05:26:53;;;;;;;3.20;1.98;;;;;;;16.85;nan;101598.72;5003465;28;20034;-73
2022/07/09 05:29:19;;;;;;;2.83;1.70;;;;;;;17.02;nan;101591.53;5019139;28;20091;-73
2022/07/09 05:31:44;;;;;;;2.33;1.75;;;;;;;17.25;nan;101594.34;5019044;28;20125;-73
2022/07/09 05:34:09;;;;;;;2.60;1.48;;;;;;;17.49;nan;101594.28;5017335;28;20487;-73
2022/07/09 05:36:35;;;;;;;2.45;1.50;;;;;;;17.69;nan;101594.75;5018007;28;20125;-73
2022/07/09 05:39:00;;;;;;;2.22;1.30;;;;;;;17.91;nan;101595.84;5018782;28;20046;-74
2022/07/09 05:41:27;;;;;;;2.60;1.23;;;;;;;18.10;nan;101591.94;5016790;28;20582;-73
2022/07/09 05:43:53;;;;;;;1.98;1.00;;;;;;;18.24;nan;101591.19;4999977;28;20036;-73
2022/07/09 05:46:18;;;;;;;2.25;1.10;;;;;;;18.36;nan;101588.94;5015354;28;20519;-73
2022/07/09 05:48:44;;;;;;;1.23;0.90;;;;;;;18.42;nan;101592.72;5016949;28;20038;-73
2022/07/09 05:51:09;;;;;;;2.27;1.20;;;;;;;18.45;nan;101592.41;5015842;28;20495;-74
2022/07/09 05:53:34;;;;;;;3.72;1.30;;;;;;;18.49;nan;101591.00;5017964;28;20280;-74
2022/07/09 05:56:00;;;;;;;1.77;1.30;;;;;;;18.50;nan;101595.38;5020330;28;20034;-73
2022/07/09 05:58:25;;;;;;;2.33;1.10;;;;;;;18.54;nan;101591.31;5019061;28;20048;-73
2022/07/09 06:00:51;;;;;;;2.47;1.38;;;;;;;18.55;nan;101587.63;5018559;28;20041;-74
2022/07/09 06:03:16;;;;;;;2.25;1.17;;;;;;;18.57;nan;101585.63;5001061;28;20026;-73
2022/07/09 06:05:41;;;;;;;2.05;1.30;;;;;;;18.64;nan;101588.41;5018787;28;20049;-73
2022/07/09 06:08:09;;;;;;;1.40;1.10;;;;;;;18.78;nan;101584.13;5006476;28;20039;-74
2022/07/09 06:10:34;;;;;;;3.08;1.30;;;;;;;19.15;nan;101586.00;5019693;28;20048;-73
2022/07/09 06:12:59;;;;;;;1.73;0.98;;;;;;;19.60;nan;101583.34;5002116;28;20483;-73
2022/07/09 06:15:25;;;;;;;3.65;1.33;;;;;;;19.97;nan;101587.78;5020385;28;20498;-74
2022/07/09 06:17:50;;;;;;;1.80;1.13;;;;;;;20.33;nan;101581.56;5019973;28;20050;-73
2022/07/09 06:20:16;;;;;;;2.03;1.10;;;;;;;20.78;nan;101590.31;5018781;28;20057;-74
2022/07/09 06:22:42;;;;;;;3.15;1.40;;;;;;;21.15;nan;101591.03;5018817;28;20125;-74
2022/07/09 06:25:08;;;;;;;2.17;1.38;;;;;;;21.54;nan;101589.66;5018601;28;20034;-74
2022/07/09 06:27:34;;;;;;;1.52;0.90;;;;;;;21.92;nan;101602.69;5017607;28;20510;-74
2022/07/09 06:29:59;;;;;;;1.95;1.00;;;;;;;22.21;nan;101593.50;5013956;28;20041;-74
2022/07/09 06:32:25;;;;;;;1.95;1.08;;;;;;;22.36;nan;101593.34;5006511;28;20062;-74
2022/07/09 06:34:50;;;;;;;2.20;1.10;;;;;;;22.84;nan;101595.91;5013089;28;20423;-74
2022/07/09 06:37:15;;;;;;;2.50;1.25;;;;;;;22.76;nan;101598.78;5008521;28;20365;-74
2022/07/09 06:39:50;;;;;;;2.50;1.20;;;;;;;22.78;nan;101594.84;5013898;28;20030;-74
2022/07/09 06:42:17;;;;;;;3.03;1.40;;;;;;;22.97;nan;101595.88;5023946;28;20037;-74
2022/07/09 06:44:43;;;;;;;2.33;1.15;;;;;;;23.03;nan;101595.09;5023160;28;20136;-74
2022/07/09 06:47:10;;;;;;;2.67;1.40;;;;;;;23.11;nan;101596.75;5006189;28;20108;-74
2022/07/09 06:49:35;;;;;;;2.42;1.20;;;;;;;23.27;nan;101595.47;5023887;28;20030;-74
2022/07/09 06:52:00;;;;;;;1.67;1.00;;;;;;;23.58;nan;101602.06;5013764;28;20041;-74
2022/07/09 06:54:26;;;;;;;2.03;1.00;;;;;;;23.84;nan;101602.00;4998383;28;20041;-75
2022/07/09 06:56:52;;;;;;;2.47;0.90;;;;;;;24.23;nan;101599.34;5000285;28;20088;-75
2022/07/09 06:59:18;;;;;;;1.63;0.90;;;;;;;24.38;nan;101611.53;4994208;28;20129;-74
2022/07/09 07:01:44;;;;;;;2.78;1.13;;;;;;;24.56;nan;101604.56;5012321;28;20224;-75
2022/07/09 07:04:11;;;;;;;3.10;1.10;;;;;;;24.98;nan;101608.41;5012633;28;20536;-75
2022/07/09 07:06:37;;;;;;;;;;;;;;;25.04;nan;101603.16;5015429;28;20112;-75
2022/07/09 07:09:02;;;;;;;1.73;0.90;;;;;;;25.54;nan;101609.34;5015471;28;19925;-75
2022/07/09 07:11:27;;;;;;;2.20;1.10;;;;;;;26.09;nan;101610.41;5014231;28;20071;-75
2022/07/09 07:13:53;;;;;;;2.33;1.13;;;;;;;26.22;nan;101611.06;4997434;28;20088;-75
2022/07/09 07:16:18;;;;;;;2.30;1.05;;;;;;;26.38;nan;101606.03;5011727;28;20399;-75
2022/07/09 07:18:43;;;;;;;2.08;1.00;;;;;;;26.68;nan;101606.84;5013220;28;20514;-75
2022/07/09 07:21:09;;;;;;;1.35;0.90;;;;;;;26.84;nan;101599.94;5013312;28;20045;-75
2022/07/09 07:23:34;;;;;;;;;;;;;;;26.98;nan;101603.25;5012127;28;20041;-75
2022/07/09 07:26:00;;;;;;;;;;;;;;;27.30;nan;101601.03;5013611;28;19921;-76
2022/07/09 07:28:25;;;;;;;;;;;;;;;27.50;nan;101603.34;5008256;28;20489;-76
2022/07/09 07:30:50;;;;;;;;;;;;;;;27.48;nan;101593.78;4980455;28;19922;-75
2022/07/09 07:33:16;;;;;;;;;;;;;;;27.58;nan;101593.19;5009369;28;19972;-76
2022/07/09 07:35:41;;;;;;;2.87;0.90;;;;;;;28.08;nan;101598.88;5015723;28;20255;-75
2022/07/09 07:38:06;;;;;;;1.40;0.65;;;;;;;28.46;nan;101589.25;5015588;28;20042;-75
2022/07/09 07:40:31;;;;;;;2.35;1.00;;;;;;;28.65;nan;101597.16;5030509;28;20042;-75
2022/07/09 07:42:57;;;;;;;2.40;0.80;;;;;;;28.90;nan;101588.59;5024711;28;20116;-75
2022/07/09 07:45:22;;;;;;;1.48;0.80;;;;;;;29.21;nan;101588.00;5036006;28;20289;-75
2022/07/09 07:47:48;;;;;;;1.42;0.80;;;;;;;29.48;nan;101590.00;5028944;28;20042;-76
2022/07/09 07:50:13;;;;;;;1.35;0.70;;;;;;;29.83;nan;101589.66;5016149;28;20045;-76
2022/07/09 07:52:38;;;;;;;2.00;0.85;;;;;;;29.97;nan;101581.91;5016749;28;20064;-76
2022/07/09 07:55:04;;;;;;;2.00;0.85;;;;;;;29.88;nan;101591.63;5015260;28;20163;-76
2022/07/09 07:57:29;;;;;;;2.15;0.77;;;;;;;29.76;nan;101582.75;5013237;28;20033;-76
2022/07/09 07:59:55;;;;;;;1.67;0.80;;;;;;;29.55;nan;101578.91;4995255;28;20038;-75
2022/07/09 08:02:20;;;;;;;3.10;1.10;;;;;;;29.34;nan;101578.66;5011382;28;20062;-75
2022/07/09 08:04:45;;;;;;;1.77;0.90;;;;;;;29.38;nan;101584.44;5009070;28;20046;-75
2022/07/09 08:07:11;;;;;;;3.05;0.90;;;;;;;29.64;nan;101580.94;5013186;28;20038;-75
2022/07/09 08:09:36;;;;;;;1.52;0.65;;;;;;;30.08;nan;101576.56;4993512;28;20061;-75
2022/07/09 08:12:01;;;;;;;2.47;1.00;;;;;;;30.50;nan;101579.44;5012888;28;20610;-75
2022/07/09 08:14:27;;;;;;;4.20;1.48;;;;;;;30.46;nan;101581.03;5012834;28;20434;-75
2022/07/09 08:16:52;;;;;;;3.97;1.50;;;;;;;30.11;nan;101576.88;5013851;28;20046;-76
2022/07/09 08:19:18;;;;;;;2.58;0.90;;;;;;;29.94;nan;101579.69;5014335;28;20056;-76
2022/07/09 08:21:43;;;;;;;2.65;0.90;;;;;;;30.63;nan;101573.56;4993927;28;20507;-76
2022/07/09 08:24:08;;;;;;;1.85;1.00;;;;;;;31.40;nan;101560.44;5012300;28;20034;-77
2022/07/09 08:26:34;;;;;;;2.25;0.90;;;;;;;31.98;nan;101573.22;5008069;28;20033;-77
2022/07/09 08:28:59;;;;;;;3.08;1.10;;;;;;;32.13;nan;101562.28;5007835;28;20403;-77
2022/07/09 08:31:25;;;;;;;3.05;0.95;;;;;;;32.32;nan;101557.13;5006495;28;20156;-76
2022/07/09 08:33:50;;;;;;;3.53;1.35;;;;;;;32.42;nan;101515.22;5009166;28;20030;-76
2022/07/09 08:36:16;;;;;;;3.10;1.20;;;;;;;;;;5008117;28;20046;-77
2022/07/09 08:38:41;;;;;;;2.55;1.10;;;;;;;;;;5003974;28;20124;-76
2022/07/09 08:41:07;;;;;;;3.30;1.00;;;;;;;33.91;nan;101453.31;5005658;28;20046;-77
2022/07/09 08:43:37;;;;;;;2.42;1.10;;;;;;;34.35;nan;101446.91;5008367;28;20042;-77
2022/07/09 08:46:03;;;;;;;3.88;1.17;;;;;;;34.81;nan;101459.38;5014156;28;20125;-77
2022/07/09 08:48:28;;;;;;;;;;;;;;;35.07;nan;101455.19;5007257;28;20037;-74
2022/07/09 08:50:54;;;;;;;;;;;;;;;35.21;nan;101457.25;4990653;28;19925;-76
2022/07/09 08:53:19;;;;;;;2.30;1.30;;;;;;;35.12;nan;101472.75;5006539;28;19921;-77
2022/07/09 08:55:46;;;;;;;3.28;1.33;;;;;;;35.51;nan;101444.97;5008748;28;20112;-77
2022/07/09 08:58:14;;;;;;;1.50;1.00;;;;;;;35.80;nan;101442.06;5006900;28;20415;-77
2022/07/09 09:00:41;;;;;;;2.70;1.10;;;;;;;35.53;nan;101449.06;5008187;28;20535;-77
2022/07/09 09:03:06;;;;;;;2.95;0.98;;;;;;;35.66;nan;101480.56;5011405;28;20037;-77
2022/07/09 09:05:32;;;;;;;2.97;1.15;;;;;;;36.21;nan;101449.69;5006999;28;20036;-77
2022/07/09 09:07:57;;;;;;;3.28;1.40;;;;;;;36.33;nan;101443.69;5008343;28;20293;-77
2022/07/09 09:10:24;;;;;;;3.42;1.40;;;;;;;35.29;nan;101437.34;5006889;28;20318;-77
2022/07/09 09:13:00;;;;;;;2.45;1.25;;;;;;;35.26;nan;101433.25;5006622;28;20049;-77
2022/07/09 09:15:27;;;;;;;3.50;1.40;;;;;;;33.92;nan;101416.53;5005899;28;20038;-77
2022/07/09 09:17:52;;;;;;;2.08;1.13;;;;;;;32.63;nan;101423.78;4982959;28;20100;-76
2022/07/09 09:20:18;;;;;;;1.83;0.93;;;;;;;;;;5006334;28;20042;-77
2022/07/09 09:23:04;;;;;;;4.60;1.20;;;;;;;31.34;nan;101405.66;4999536;28;20034;-76
2022/07/09 09:25:29;;;;;;;4.38;1.55;;;;;;;31.21;nan;101419.88;5000418;28;20624;-76
2022/07/09 09:27:57;;;;;;;2.28;1.13;;;;;;;31.10;nan;101414.34;5006753;28;20038;-76
2022/07/09 09:30:23;;;;;;;4.03;1.42;;;;;;;30.71;nan;101424.00;5000881;28;20041;-76
2022/07/09 09:33:03;;;;;;;3.08;1.50;;;;;;;29.85;nan;101415.72;5006216;28;20038;-76
2022/07/09 09:35:32;;;;;;;2.85;1.50;;;;;;;29.32;nan;101408.34;5005971;28;20038;-75
2022/07/09 09:37:57;;;;;;;1.95;1.10;;;;;;;29.14;nan;101409.50;5007320;28;20034;-76
2022/07/09 09:40:23;;;;;;;2.75;1.23;;;;;;;29.10;nan;101398.28;5004849;28;20042;-76
2022/07/09 09:42:49;;;;;;;2.13;1.25;;;;;;;29.68;nan;101446.91;5004109;28;20419;-75
2022/07/09 09:45:15;;;;;;;2.33;1.20;;;;;;;31.51;nan;101424.59;4987276;28;20058;-76
2022/07/09 09:47:49;;;;;;;2.65;0.90;;;;;;;33.88;nan;101414.66;5006079;28;20053;-76
2022/07/09 09:50:22;;;;;;;2.22;1.10;;;;;;;33.58;nan;101455.72;5007182;28;20034;-76
2022/07/09 09:52:50;;;;;;;3.30;1.20;;;;;;;33.14;nan;101415.41;5006342;28;20034;-76
2022/07/09 09:55:18;;;;;;;2.83;1.40;;;;;;;31.92;nan;101507.53;5004156;28;20038;-77
2022/07/09 09:57:43;;;;;;;3.15;1.30;;;;;;;30.88;nan;101411.00;5009235;28;20034;-76
2022/07/09 10:00:11;;;;;;;6.90;1.20;;;;;;;30.25;nan;101408.13;4988479;28;20026;-77
2022/07/09 10:02:39;;;;;;;3.40;1.30;;;;;;;29.82;nan;101402.63;5002183;28;21331;-77
2022/07/09 10:05:05;;;;;;;3.38;1.30;;;;;;;29.49;nan;101345.59;5006091;28;20033;-76
2022/07/09 10:07:32;;;;;;;3.05;1.20;;;;;;;29.50;nan;101394.38;5010906;28;20041;-76
2022/07/09 10:09:58;;;;;;;2.35;1.23;;;;;;;29.39;nan;101385.28;4993670;28;20044;-76
2022/07/09 10:12:33;;;;;;;2.33;1.10;;;;;;;31.31;nan;101392.56;4991839;28;20049;-76
2022/07/09 10:14:59;;;;;;;2.97;1.50;;;;;;;31.26;nan;101396.09;4992724;28;20037;-76
2022/07/09 10:17:26;;;;;;;2.65;1.30;;;;;;;30.64;nan;101397.75;5010919;28;20059;-76
2022/07/09 10:19:55;;;;;;;2.67;1.30;;;;;;;30.61;nan;101392.81;5010679;28;20041;-76
2022/07/09 10:22:22;;;;;;;;;;;;;;;31.37;nan;101380.56;5009735;28;20503;-76
2022/07/09 10:24:50;;;;;;;2.55;1.45;;;;;;;31.18;nan;101393.91;5008406;28;20024;-76
2022/07/09 10:27:16;;;;;;;2.58;1.15;;;;;;;30.86;nan;101391.31;5007264;28;20049;-77
2022/07/09 10:30:02;;;;;;;2.88;1.10;;;;;;;30.37;nan;101378.78;5009155;28;20585;-76
2022/07/09 10:32:27;;;;;;;2.92;1.20;;;;;;;;;;5007827;28;20046;-76
2022/07/09 10:34:56;;;;;;;3.10;1.38;;;;;;;;;;4993029;28;20503;-76
2022/07/09 10:37:31;;;;;;;1.90;0.90;;;;;;;33.06;nan;101393.22;5007195;28;20405;-76
2022/07/09 10:40:14;;;;;;;1.50;0.80;;;;;;;33.17;nan;101383.84;5010938;28;20451;-77
2022/07/09 10:42:41;;;;;;;2.90;1.35;;;;;;;33.40;nan;101319.28;5011443;28;20045;-76
2022/07/09 10:45:35;;;;;;;2.10;1.00;;;;;;;33.42;nan;101336.28;5012590;28;20832;-76
2022/07/09 10:48:02;;;;;;;2.33;0.80;;;;;;;33.32;nan;101413.09;5012416;28;20393;-76
2022/07/09 10:50:31;;;;;;;1.50;0.90;;;;;;;32.33;nan;101402.75;5011877;28;20104;-76
2022/07/09 10:52:57;;;;;;;3.08;1.20;;;;;;;;;;5011473;28;20053;-76
2022/07/09 10:55:24;;;;;;;2.08;0.95;;;;;;;32.76;nan;101367.59;5009140;28;20440;-76
2022/07/09 10:57:50;;;;;;;3.25;0.90;;;;;;;34.52;nan;101357.78;5012926;28;20052;-76
2022/07/09 11:00:17;;;;;;;1.92;0.80;;;;;;;35.62;nan;101369.47;5011049;28;20475;-76
2022/07/09 11:02:55;;;;;;;1.75;0.90;;;;;;;36.87;nan;101375.13;5011576;28;20042;-77
2022/07/09 11:05:21;;;;;;;2.30;1.10;;;;;;;36.48;nan;101437.88;4991829;28;20252;-76
2022/07/09 11:07:59;;;;;;;2.47;1.08;;;;;;;35.52;nan;101446.63;5010267;28;20034;-76
2022/07/09 11:10:26;;;;;;;1.67;0.88;;;;;;;34.28;nan;101432.72;5008125;28;21498;-75
2022/07/09 11:12:52;;;;;;;;;;;;;;;32.78;nan;101423.75;5011421;28;20172;-76
2022/07/09 11:15:21;;;;;;;1.60;0.77;;;;;;;31.96;nan;101425.75;5009580;28;19925;-76
2022/07/09 11:18:16;;;;;;;3.53;1.25;;;;;;;30.54;nan;101433.19;5009659;28;20793;-76
2022/07/09 11:20:46;;;;;;;2.60;0.93;;;;;;;30.05;nan;101425.16;4992580;28;20050;-75
2022/07/09 11:23:15;;;;;;;2.72;1.15;;;;;;;29.56;nan;101419.78;5009116;28;20547;-76
2022/07/09 11:25:41;;;;;;;2.38;1.30;;;;;;;30.40;nan;101421.91;5010427;28;20042;-76
2022/07/09 11:28:07;;;;;;;3.47;1.27;;;;;;;32.58;nan;101416.41;5010310;28;20045;-76
2022/07/09 11:30:33;;;;;;;4.00;1.10;;;;;;;33.91;nan;101416.81;4993270;28;20030;-76
2022/07/09 11:32:59;;;;;;;3.30;1.13;;;;;;;33.94;nan;101425.28;5010322;28;20042;-76
2022/07/09 11:35:29;;;;;;;2.20;1.20;;;;;;;32.45;nan;101411.47;5009812;28;20034;-76
2022/07/09 11:37:56;;;;;;;2.60;1.27;;;;;;;31.90;nan;101416.72;4992544;28;20034;-77
2022/07/09 11:40:22;;;;;;;1.92;0.88;;;;;;;32.57;nan;101419.44;5008580;28;20141;-76
2022/07/09 11:42:49;;;;;;;2.58;1.20;;;;;;;32.92;nan;101409.44;5010803;28;20357;-76